createdAt,value
2022-09-06T00:00:30.783Z,4.35
2022-09-06T00:02:59.483Z,4.47
2022-09-06T00:05:28.727Z,4.80
2022-09-06T00:07:59.179Z,4.50
2022-09-06T00:10:30.075Z,4.57
2022-09-06T00:13:03.322Z,4.80
2022-09-06T00:15:31.966Z,4.72
2022-09-06T00:18:01.203Z,4.53
2022-09-06T00:20:31.172Z,4.57
2022-09-06T00:23:00.182Z,4.60
2022-09-06T00:25:30.992Z,4.63
2022-09-06T00:28:00.552Z,4.55
2022-09-06T00:30:30.074Z,4.35
2022-09-06T00:32:58.708Z,4.65
2022-09-06T00:35:28.333Z,4.80
2022-09-06T00:37:58.432Z,4.82
2022-09-06T00:40:27.432Z,5.03
2022-09-06T00:42:57.756Z,5.07
2022-09-06T00:45:28.547Z,4.88
2022-09-06T00:47:59.104Z,5.03
2022-09-06T00:50:28.202Z,4.50
2022-09-06T00:52:56.708Z,4.82
2022-09-06T00:55:26.285Z,5.05
2022-09-06T00:57:56.932Z,5.30
2022-09-06T01:00:25.807Z,4.75
2022-09-06T01:02:55.549Z,5.35
2022-09-06T01:05:29.339Z,5.18
2022-09-06T01:08:06.799Z,5.25
2022-09-06T01:10:49.845Z,5.10
2022-09-06T01:13:29.905Z,5.07
2022-09-06T01:16:07.906Z,5.35
2022-09-06T01:18:50.424Z,5.30
2022-09-06T01:21:27.710Z,5.75
2022-09-06T01:24:29.372Z,5.63
2022-09-06T01:27:31.931Z,5.50
2022-09-06T01:30:05.449Z,5.47
2022-09-06T01:32:41.037Z,5.43
2022-09-06T01:35:19.130Z,5.68
2022-09-06T01:37:48.215Z,5.78
2022-09-06T01:40:17.047Z,5.70
2022-09-06T01:42:47.446Z,5.90
2022-09-06T01:45:20.901Z,5.53
2022-09-06T01:47:58.895Z,5.55
2022-09-06T01:50:58.756Z,6.00
2022-09-06T01:53:41.812Z,5.50
2022-09-06T01:56:20.897Z,6.05
2022-09-06T01:59:09.134Z,5.70
2022-09-06T02:01:48.792Z,6.60
2022-09-06T02:04:24.396Z,6.40
2022-09-06T02:06:59.012Z,6.20
2022-09-06T02:09:31.012Z,6.47
2022-09-06T02:12:02.695Z,6.50
2022-09-06T02:14:36.589Z,6.50
2022-09-06T02:17:10.097Z,6.65
2022-09-06T02:19:44.796Z,6.28
2022-09-06T02:22:16.242Z,6.57
2022-09-06T02:24:46.920Z,6.85
2022-09-06T02:27:15.752Z,6.72
2022-09-06T02:29:45.026Z,6.82
2022-09-06T02:32:19.293Z,6.78
2022-09-06T02:34:48.063Z,6.90
2022-09-06T02:37:18.171Z,6.85
2022-09-06T02:39:46.657Z,6.85
2022-09-06T02:42:17.642Z,7.20
2022-09-06T02:44:46.114Z,6.88
2022-09-06T02:47:16.871Z,6.55
2022-09-06T02:49:45.381Z,6.90
2022-09-06T02:52:13.817Z,7.13
2022-09-06T02:54:42.227Z,6.80
2022-09-06T02:57:10.663Z,6.85
2022-09-06T02:59:39.033Z,6.88
2022-09-06T03:02:07.496Z,7.15
2022-09-06T03:04:37.368Z,6.90
2022-09-06T03:07:05.901Z,7.22
2022-09-06T03:09:34.398Z,7.00
2022-09-06T03:12:02.811Z,7.03
2022-09-06T03:14:31.156Z,7.15
2022-09-06T03:16:59.609Z,6.60
2022-09-06T03:19:28.000Z,7.10
2022-09-06T03:21:57.813Z,7.18
2022-09-06T03:24:26.190Z,7.50
2022-09-06T03:26:54.674Z,7.10
2022-09-06T03:29:23.088Z,7.03
2022-09-06T03:31:51.484Z,7.57
2022-09-06T03:34:19.863Z,7.65
2022-09-06T03:36:48.444Z,7.20
2022-09-06T03:39:18.244Z,7.60
2022-09-06T03:41:46.594Z,7.20
2022-09-06T03:44:15.041Z,7.72
2022-09-06T03:46:43.458Z,7.68
2022-09-06T03:49:11.997Z,7.32
2022-09-06T03:51:40.327Z,7.63
2022-09-06T03:54:08.710Z,8.10
2022-09-06T03:56:38.709Z,7.20
2022-09-06T03:59:07.164Z,7.15
2022-09-06T04:01:35.602Z,7.50
2022-09-06T04:04:04.609Z,7.30
2022-09-06T04:06:33.060Z,7.43
2022-09-06T04:09:01.426Z,7.72
2022-09-06T04:11:29.794Z,7.22
2022-09-06T04:13:59.579Z,7.50
2022-09-06T04:16:27.923Z,7.95
2022-09-06T04:18:56.397Z,7.22
2022-09-06T04:21:24.926Z,7.57
2022-09-06T04:23:53.387Z,7.45
2022-09-06T04:26:21.879Z,7.50
2022-09-06T04:28:50.559Z,7.80
2022-09-06T04:31:20.604Z,7.03
2022-09-06T04:33:49.058Z,7.97
2022-09-06T04:36:17.381Z,7.53
2022-09-06T04:38:46.701Z,7.10
2022-09-06T04:41:17.027Z,8.20
2022-09-06T04:43:45.529Z,8.55
2022-09-06T04:46:20.637Z,7.93
2022-09-06T04:48:50.764Z,8.65
2022-09-06T04:51:19.552Z,8.95
2022-09-06T04:53:48.680Z,8.80
2022-09-06T04:56:19.658Z,8.40
2022-09-06T04:58:49.443Z,8.20
2022-09-06T05:01:18.224Z,8.20
2022-09-06T05:03:46.699Z,8.48
2022-09-06T05:06:22.539Z,8.32
2022-09-06T05:08:51.216Z,8.57
2022-09-06T05:11:20.224Z,9.20
2022-09-06T05:13:50.259Z,8.40
2022-09-06T05:16:18.902Z,8.38
2022-09-06T05:18:47.336Z,8.35
2022-09-06T05:21:17.184Z,8.93
2022-09-06T05:23:45.784Z,8.13
2022-09-06T05:26:13.987Z,8.45
2022-09-06T05:28:42.051Z,8.60
2022-09-06T05:31:11.931Z,8.55
2022-09-06T05:33:40.309Z,8.13
2022-09-06T05:36:09.136Z,9.07
2022-09-06T05:38:38.588Z,8.70
2022-09-06T05:41:06.822Z,8.07
2022-09-06T05:43:34.926Z,8.32
2022-09-06T05:46:03.207Z,7.88
2022-09-06T05:48:36.695Z,8.82
2022-09-06T05:51:07.190Z,9.50
2022-09-06T05:53:36.479Z,8.68
2022-09-06T05:56:07.365Z,8.85
2022-09-06T05:58:35.615Z,9.45
2022-09-06T06:01:09.285Z,10.40
2022-09-06T06:03:37.638Z,10.32
2022-09-06T06:06:06.146Z,10.05
2022-09-06T06:08:34.253Z,9.88
2022-09-06T06:11:03.040Z,11.13
2022-09-06T06:13:35.066Z,10.10
2022-09-06T06:16:04.374Z,10.90
2022-09-06T06:18:32.497Z,11.00
2022-09-06T06:21:11.003Z,10.80
2022-09-06T06:23:39.550Z,10.63
2022-09-06T06:26:08.579Z,11.25
2022-09-06T06:28:38.917Z,9.88
2022-09-06T06:31:08.554Z,11.02
2022-09-06T06:33:37.932Z,11.27
2022-09-06T06:36:08.022Z,9.73
2022-09-06T06:38:38.495Z,10.13
2022-09-06T06:41:07.713Z,9.90
2022-09-06T06:43:38.021Z,9.60
2022-09-06T06:46:08.267Z,10.70
2022-09-06T06:48:36.771Z,10.48
2022-09-06T06:51:05.284Z,11.02
2022-09-06T06:53:33.854Z,10.57
2022-09-06T06:56:01.996Z,10.88
2022-09-06T06:58:32.103Z,10.85
2022-09-06T07:01:01.767Z,11.30
2022-09-06T07:03:29.983Z,12.10
2022-09-06T07:06:13.658Z,11.95
2022-09-06T07:08:42.301Z,12.35
2022-09-06T07:11:11.886Z,11.45
2022-09-06T07:13:40.373Z,11.70
2022-09-06T07:16:11.888Z,11.18
2022-09-06T07:18:42.399Z,10.65
2022-09-06T07:24:08.395Z,14.07
2022-09-06T07:26:38.909Z,13.52
2022-09-06T07:29:08.598Z,10.90
2022-09-06T07:34:28.147Z,10.23
2022-09-06T07:36:56.535Z,10.10
2022-09-06T07:39:24.843Z,10.15
2022-09-06T07:41:52.965Z,10.43
2022-09-06T07:44:21.090Z,10.65
2022-09-06T07:46:52.656Z,10.05
2022-09-06T07:49:20.859Z,10.27
2022-09-06T07:51:49.435Z,9.85
2022-09-06T07:54:32.802Z,10.23
2022-09-06T07:57:00.888Z,9.50
2022-09-06T07:59:28.969Z,9.80
2022-09-06T08:01:58.504Z,9.15
2022-09-06T08:04:26.759Z,9.50
2022-09-06T08:09:45.373Z,9.57
2022-09-06T08:12:13.430Z,9.38
2022-09-06T08:14:41.514Z,8.88
2022-09-06T08:17:11.010Z,9.80
2022-09-06T08:19:39.130Z,9.30
2022-09-06T08:22:07.188Z,9.77
2022-09-06T08:24:36.444Z,9.35
2022-09-06T08:27:07.669Z,9.25
2022-09-06T08:29:35.778Z,9.18
2022-09-06T08:32:04.573Z,9.45
2022-09-06T08:34:34.018Z,9.52
2022-09-06T08:37:02.128Z,8.80
2022-09-06T08:39:30.297Z,8.95
2022-09-06T08:42:03.057Z,8.68
2022-09-06T08:47:23.671Z,8.77
2022-09-06T08:49:57.240Z,8.98
2022-09-06T08:52:45.273Z,8.60
2022-09-06T08:55:29.212Z,8.35
2022-09-06T08:58:09.845Z,8.63
2022-09-06T09:00:40.854Z,8.10
2022-09-06T09:03:16.683Z,8.65
2022-09-06T09:05:51.831Z,8.02
2022-09-06T09:08:25.909Z,8.27
2022-09-06T09:10:59.693Z,7.72
2022-09-06T09:13:32.691Z,8.02
2022-09-06T09:16:01.006Z,7.85
2022-09-06T09:18:33.517Z,8.07
2022-09-06T09:21:03.805Z,8.18
2022-09-06T09:23:32.042Z,7.80
2022-09-06T09:26:04.402Z,7.75
2022-09-06T09:28:33.008Z,7.35
2022-09-06T09:31:01.121Z,8.27
2022-09-06T09:33:31.970Z,7.13
2022-09-06T09:36:02.989Z,7.78
2022-09-06T09:38:33.911Z,8.00
2022-09-06T09:41:03.952Z,7.18
2022-09-06T09:43:33.933Z,7.90
2022-09-06T09:46:14.295Z,7.30
2022-09-06T09:48:49.591Z,7.45
2022-09-06T09:51:26.685Z,7.30
2022-09-06T09:53:57.013Z,7.65
2022-09-06T09:56:38.050Z,7.50
2022-09-06T09:59:18.181Z,7.10
2022-09-06T10:01:46.271Z,6.88
2022-09-06T10:07:15.886Z,6.68
2022-09-06T10:09:45.168Z,7.43
2022-09-06T10:12:28.431Z,6.95
2022-09-06T10:14:57.776Z,6.80
2022-09-06T10:17:32.223Z,7.03
2022-09-06T10:20:05.127Z,6.68
2022-09-06T10:22:43.508Z,6.70
2022-09-06T10:25:37.355Z,7.20
2022-09-06T10:28:28.550Z,7.28
2022-09-06T10:31:09.330Z,7.10
2022-09-06T10:33:47.003Z,7.25
2022-09-06T10:36:17.391Z,7.10
2022-09-06T10:38:54.927Z,7.32
2022-09-06T10:41:59.604Z,7.30
2022-09-06T10:44:44.570Z,6.30
2022-09-06T10:47:15.212Z,7.20
2022-09-06T10:49:46.341Z,6.68
2022-09-06T10:52:18.057Z,7.47
2022-09-06T10:54:47.961Z,7.25
2022-09-06T11:00:13.587Z,7.30
2022-09-06T11:02:47.450Z,6.45
2022-09-06T11:11:07.431Z,6.90
2022-09-06T11:13:35.517Z,6.45
2022-09-06T11:16:09.708Z,6.93
2022-09-06T11:18:44.112Z,7.60
2022-09-06T11:21:49.468Z,6.78
2022-09-06T11:24:24.815Z,7.25
2022-09-06T11:27:05.855Z,7.32
2022-09-06T11:29:35.667Z,6.88
2022-09-06T11:32:21.529Z,7.55
2022-09-06T11:34:56.276Z,7.30
2022-09-06T11:37:28.942Z,6.88
2022-09-06T11:40:29.393Z,7.97
2022-09-06T11:43:15.999Z,7.47
2022-09-06T11:45:50.041Z,7.43
2022-09-06T11:49:03.059Z,7.22
2022-09-06T11:51:38.135Z,7.00
2022-09-06T11:54:23.020Z,6.82
2022-09-06T11:56:58.274Z,6.78
2022-09-06T11:59:44.864Z,7.43
2022-09-06T12:02:36.381Z,6.95
2022-09-06T12:05:29.107Z,7.15
2022-09-06T12:08:29.616Z,7.55
2022-09-06T12:11:21.539Z,6.75
2022-09-06T12:13:55.641Z,7.43
2022-09-06T12:16:25.745Z,7.25
2022-09-06T12:19:00.032Z,7.53
2022-09-06T12:21:52.372Z,7.50
2022-09-06T12:24:53.360Z,6.78
2022-09-06T12:27:22.836Z,7.35
2022-09-06T12:29:59.578Z,7.68
2022-09-06T12:32:36.842Z,7.20
2022-09-06T12:38:03.015Z,7.75
2022-09-06T12:40:34.153Z,7.68
2022-09-06T12:43:04.885Z,7.40
2022-09-06T12:45:33.879Z,7.38
2022-09-06T12:48:09.273Z,6.78
2022-09-06T12:50:38.621Z,7.68
2022-09-06T12:53:24.617Z,6.90
2022-09-06T12:56:05.549Z,7.43
2022-09-06T12:58:34.235Z,7.68
2022-09-06T13:01:09.917Z,7.60
2022-09-06T13:03:45.266Z,7.75
2022-09-06T13:06:23.250Z,7.38
2022-09-06T13:08:57.200Z,8.32
2022-09-06T13:11:29.683Z,8.43
2022-09-06T13:13:58.350Z,7.75
2022-09-06T13:16:29.469Z,7.80
2022-09-06T13:19:12.979Z,8.35
2022-09-06T13:21:42.800Z,7.93
2022-09-06T13:24:22.304Z,7.65
2022-09-06T13:26:51.168Z,7.10
2022-09-06T13:29:27.285Z,7.40
2022-09-06T13:31:58.150Z,7.25
2022-09-06T13:34:30.153Z,7.90
2022-09-06T13:37:02.396Z,7.57
2022-09-06T13:39:32.966Z,7.15
2022-09-06T13:42:03.586Z,7.45
2022-09-06T13:44:33.714Z,6.32
2022-09-06T13:47:02.618Z,7.38
2022-09-06T13:49:32.899Z,6.63
2022-09-06T13:52:03.205Z,7.78
2022-09-06T13:54:32.506Z,6.85
2022-09-06T13:57:01.842Z,6.85
2022-09-06T13:59:31.631Z,8.02
2022-09-06T14:02:03.932Z,6.88
2022-09-06T14:04:33.818Z,7.05
2022-09-06T14:07:02.645Z,6.90
2022-09-06T14:09:31.268Z,6.50
2022-09-06T14:11:59.699Z,6.93
2022-09-06T14:14:28.348Z,6.50
2022-09-06T14:16:57.152Z,6.53
2022-09-06T14:19:25.698Z,6.72
2022-09-06T14:21:55.905Z,6.78
2022-09-06T14:24:24.336Z,6.75
2022-09-06T14:26:52.749Z,7.85
2022-09-06T14:29:21.131Z,6.85
2022-09-06T14:31:49.840Z,7.00
2022-09-06T14:34:18.507Z,6.90
2022-09-06T14:36:46.809Z,7.10
2022-09-06T14:39:16.847Z,6.55
2022-09-06T14:41:45.419Z,7.25
2022-09-06T14:44:13.909Z,7.60
2022-09-06T14:46:42.392Z,7.10
2022-09-06T14:49:11.489Z,7.00
2022-09-06T14:51:40.816Z,7.05
2022-09-06T14:54:11.459Z,7.00
2022-09-06T14:56:43.722Z,7.25
2022-09-06T14:59:12.581Z,6.80
2022-09-06T15:01:41.553Z,6.40
2022-09-06T15:04:12.502Z,6.43
2022-09-06T15:06:47.190Z,6.40
2022-09-06T15:09:16.233Z,6.60
2022-09-06T15:11:48.129Z,6.70
2022-09-06T15:14:18.266Z,7.00
2022-09-06T15:16:49.781Z,7.05
2022-09-06T15:19:20.996Z,6.95
2022-09-06T15:21:49.724Z,6.85
2022-09-06T15:24:18.889Z,6.63
2022-09-06T15:26:48.885Z,6.55
2022-09-06T15:29:18.032Z,6.22
2022-09-06T15:31:50.434Z,7.10
2022-09-06T15:34:20.047Z,6.60
2022-09-06T15:36:48.682Z,6.70
2022-09-06T15:39:17.382Z,7.25
2022-09-06T15:41:45.957Z,7.10
2022-09-06T15:44:17.954Z,6.78
2022-09-06T15:46:50.010Z,6.55
2022-09-06T15:49:23.289Z,7.10
2022-09-06T15:51:54.819Z,6.53
2022-09-06T15:54:45.325Z,6.68
2022-09-06T15:57:16.551Z,7.60
2022-09-06T15:59:47.183Z,7.25
2022-09-06T16:02:16.195Z,6.40
2022-09-06T16:04:44.836Z,6.68
2022-09-06T16:07:13.566Z,6.55
2022-09-06T16:09:42.674Z,6.75
2022-09-06T16:12:11.074Z,6.90
2022-09-06T16:14:39.796Z,6.20
2022-09-06T16:17:09.693Z,6.95
2022-09-06T16:19:38.175Z,6.97
2022-09-06T16:22:06.634Z,6.95
2022-09-06T16:24:35.072Z,6.90
2022-09-06T16:27:03.565Z,6.40
2022-09-06T16:29:31.972Z,6.57
2022-09-06T16:32:00.774Z,6.55
2022-09-06T16:34:30.713Z,6.30
2022-09-06T16:37:00.448Z,6.72
2022-09-06T16:39:28.844Z,6.57
2022-09-06T16:41:57.324Z,6.80
2022-09-06T16:44:26.039Z,6.30
2022-09-06T16:46:56.134Z,6.60
2022-09-06T16:49:25.009Z,6.65
2022-09-06T16:51:55.172Z,6.20
2022-09-06T16:54:23.670Z,6.60
2022-09-06T16:56:52.657Z,6.85
2022-09-06T16:59:21.791Z,6.53
2022-09-06T17:01:51.489Z,7.20
2022-09-06T17:04:20.205Z,6.90
2022-09-06T17:06:48.575Z,6.32
2022-09-06T17:09:20.917Z,7.03
2022-09-06T17:11:50.309Z,6.88
2022-09-06T17:14:18.961Z,6.78
2022-09-06T17:17:05.175Z,7.53
2022-09-06T17:19:36.613Z,7.00
2022-09-06T17:22:05.611Z,6.78
2022-09-06T17:24:35.787Z,6.65
2022-09-06T17:27:04.150Z,7.47
2022-09-06T17:29:32.932Z,7.60
2022-09-06T17:32:03.874Z,7.43
2022-09-06T17:34:34.987Z,7.78
2022-09-06T17:37:03.309Z,7.30
2022-09-06T17:39:31.602Z,7.10
2022-09-06T17:42:02.177Z,6.93
2022-09-06T17:44:30.337Z,7.07
2022-09-06T17:47:14.820Z,7.45
2022-09-06T17:49:43.517Z,7.30
2022-09-06T17:52:11.725Z,7.20
2022-09-06T17:54:39.854Z,6.47
2022-09-06T17:57:09.409Z,7.28
2022-09-06T17:59:38.467Z,6.88
2022-09-06T18:02:06.765Z,6.93
2022-09-06T18:04:35.006Z,6.68
2022-09-06T18:07:03.331Z,6.60
2022-09-06T18:09:31.713Z,7.20
2022-09-06T18:11:59.838Z,7.28
2022-09-06T18:14:29.593Z,7.05
2022-09-06T18:16:57.939Z,6.80
2022-09-06T18:19:26.919Z,7.05
2022-09-06T18:21:55.330Z,7.22
2022-09-06T18:24:23.944Z,7.05
2022-09-06T18:26:52.005Z,6.68
2022-09-06T18:29:20.824Z,7.03
2022-09-06T18:31:53.527Z,6.97
2022-09-06T18:34:22.193Z,6.25
2022-09-06T18:36:50.358Z,7.10
2022-09-06T18:39:19.090Z,7.28
2022-09-06T18:42:07.033Z,7.40
2022-09-06T18:44:36.423Z,7.05
2022-09-06T18:47:07.566Z,6.60
2022-09-06T18:49:39.462Z,7.95
2022-09-06T18:52:10.256Z,7.20
2022-09-06T18:54:38.291Z,7.32
2022-09-06T18:57:06.450Z,7.25
2022-09-06T18:59:34.489Z,7.47
2022-09-06T19:02:02.779Z,7.60
2022-09-06T19:04:32.338Z,7.22
2022-09-06T19:07:02.437Z,7.35
2022-09-06T19:09:30.595Z,7.85
2022-09-06T19:11:58.776Z,7.85
2022-09-06T19:14:26.966Z,7.10
2022-09-06T19:16:55.145Z,6.90
2022-09-06T19:19:23.552Z,7.68
2022-09-06T19:21:53.051Z,7.57
2022-09-06T19:24:24.577Z,7.50
2022-09-06T19:26:55.196Z,7.85
2022-09-06T19:29:23.291Z,7.05
2022-09-06T19:31:52.203Z,7.35
2022-09-06T19:34:20.460Z,7.65
2022-09-06T19:36:50.172Z,7.65
2022-09-06T19:39:21.433Z,7.55
2022-09-06T19:41:49.622Z,7.53
2022-09-06T19:44:18.516Z,7.68
2022-09-06T19:46:47.468Z,7.13
2022-09-06T19:49:17.456Z,7.97
2022-09-06T19:51:46.597Z,7.35
2022-09-06T19:54:15.816Z,7.40
2022-09-06T19:56:46.250Z,7.70
2022-09-06T19:59:15.855Z,7.35
2022-09-06T20:01:45.328Z,7.00
2022-09-06T20:04:14.782Z,7.18
2022-09-06T20:06:43.155Z,6.72
2022-09-06T20:09:12.225Z,6.60
2022-09-06T20:11:42.553Z,7.30
2022-09-06T20:14:13.167Z,7.03
2022-09-06T20:16:42.722Z,7.15
2022-09-06T20:19:12.502Z,7.18
2022-09-06T20:21:40.615Z,7.25
2022-09-06T20:24:09.091Z,6.82
2022-09-06T20:26:37.768Z,7.13
2022-09-06T20:29:06.650Z,7.03
2022-09-06T20:31:37.937Z,6.47
2022-09-06T20:34:07.777Z,6.85
2022-09-06T20:36:36.180Z,6.57
2022-09-06T20:39:04.432Z,6.40
2022-09-06T20:41:34.030Z,6.90
2022-09-06T20:44:02.187Z,6.60
2022-09-06T20:46:33.338Z,6.57
2022-09-06T20:49:04.760Z,6.55
2022-09-06T20:51:34.209Z,6.43
2022-09-06T20:54:03.445Z,6.90
2022-09-06T20:56:34.478Z,6.60
2022-09-06T20:59:04.702Z,6.85
2022-09-06T21:01:35.141Z,6.93
2022-09-06T21:04:07.105Z,6.85
2022-09-06T21:06:37.146Z,6.70
2022-09-06T21:09:06.580Z,7.15
2022-09-06T21:11:35.421Z,7.65
2022-09-06T21:14:04.435Z,7.38
2022-09-06T21:16:33.121Z,7.05
2022-09-06T21:19:02.943Z,7.20
2022-09-06T21:21:34.561Z,7.40
2022-09-06T21:24:04.315Z,6.85
2022-09-06T21:26:32.600Z,7.30
2022-09-06T21:29:01.339Z,7.70
2022-09-06T21:31:31.077Z,7.20
2022-09-06T21:34:02.062Z,6.65
2022-09-06T21:36:33.274Z,7.78
2022-09-06T21:39:03.514Z,7.45
2022-09-06T21:41:34.429Z,7.03
2022-09-06T21:44:04.048Z,7.53
2022-09-06T21:46:33.911Z,6.78
2022-09-06T21:49:04.109Z,7.20
2022-09-06T21:51:33.919Z,7.68
2022-09-06T21:54:05.014Z,7.43
2022-09-06T21:56:33.998Z,7.93
2022-09-06T21:59:02.315Z,7.32
2022-09-06T22:01:32.620Z,7.38
2022-09-06T22:04:02.312Z,6.97
2022-09-06T22:06:34.046Z,7.32
2022-09-06T22:09:04.180Z,7.68
2022-09-06T22:11:34.033Z,6.88
2022-09-06T22:14:04.400Z,6.95
2022-09-06T22:16:33.669Z,7.38
2022-09-06T22:19:02.046Z,7.95
2022-09-06T22:21:30.202Z,6.95
2022-09-06T22:24:02.809Z,7.38
2022-09-06T22:26:32.689Z,7.75
2022-09-06T22:29:02.447Z,7.57
2022-09-06T22:31:32.168Z,8.60
2022-09-06T22:34:00.527Z,7.65
2022-09-06T22:36:29.092Z,7.20
2022-09-06T22:38:57.881Z,7.60
2022-09-06T22:41:28.571Z,7.32
2022-09-06T22:43:56.677Z,7.13
2022-09-06T22:46:24.927Z,7.65
2022-09-06T22:48:53.217Z,7.10
2022-09-06T22:51:21.749Z,7.45
2022-09-06T22:53:49.790Z,8.23
2022-09-06T22:56:17.949Z,7.60
2022-09-06T22:58:47.443Z,8.00
2022-09-06T23:01:17.256Z,7.88
2022-09-06T23:03:46.099Z,7.88
2022-09-06T23:06:14.207Z,7.45
2022-09-06T23:08:42.486Z,7.35
2022-09-06T23:11:12.332Z,7.75
2022-09-06T23:13:43.452Z,8.00
2022-09-06T23:16:15.245Z,7.53
2022-09-06T23:18:44.426Z,7.45
2022-09-06T23:21:15.334Z,8.63
2022-09-06T23:23:44.292Z,8.57
2022-09-06T23:26:14.969Z,8.40
2022-09-06T23:28:43.783Z,7.60
2022-09-06T23:31:15.300Z,8.45
2022-09-06T23:33:43.943Z,8.40
2022-09-06T23:36:13.835Z,8.13
2022-09-06T23:38:42.778Z,8.32
2022-09-06T23:41:11.423Z,8.30
2022-09-06T23:43:41.050Z,8.48
2022-09-06T23:46:10.084Z,8.73
2022-09-06T23:48:39.997Z,8.00
2022-09-06T23:51:08.680Z,8.10
2022-09-06T23:53:37.081Z,8.48
2022-09-06T23:56:05.897Z,8.32
2022-09-06T23:58:34.340Z,8.30
